createdAt,value
2019-05-02T00:01:12.536Z,24.60
2019-05-02T00:03:41.096Z,29.30
2019-05-02T00:06:09.236Z,23.57
2019-05-02T00:08:35.512Z,26.40
2019-05-02T00:11:02.077Z,25.63
2019-05-02T00:13:28.397Z,26.27
2019-05-02T00:15:55.159Z,24.23
2019-05-02T00:18:21.515Z,25.33
2019-05-02T00:20:47.667Z,21.07
2019-05-02T00:23:14.228Z,23.30
2019-05-02T00:25:40.378Z,21.50
2019-05-02T00:28:07.749Z,24.93
2019-05-02T00:30:35.844Z,21.87
2019-05-02T00:33:02.264Z,25.93
2019-05-02T00:35:28.312Z,23.40
2019-05-02T00:37:57.347Z,25.13
2019-05-02T00:40:25.607Z,23.30
2019-05-02T00:42:53.286Z,24.03
2019-05-02T00:45:18.727Z,26.73
2019-05-02T00:48:03.204Z,23.43
2019-05-02T00:50:31.174Z,25.00
2019-05-02T00:52:57.231Z,22.30
2019-05-02T00:55:23.288Z,22.07
2019-05-02T00:57:51.001Z,22.63
2019-05-02T01:00:18.489Z,22.67
2019-05-02T01:02:56.007Z,22.60
2019-05-02T01:05:22.064Z,23.57
2019-05-02T01:07:48.126Z,24.10
2019-05-02T01:10:17.288Z,31.27
2019-05-02T01:12:44.471Z,23.60
2019-05-02T01:15:11.806Z,23.93
2019-05-02T01:17:37.854Z,23.33
2019-05-02T01:20:05.708Z,24.20
2019-05-02T01:22:31.763Z,23.13
2019-05-02T01:24:57.836Z,25.27
2019-05-02T01:27:28.647Z,22.23
2019-05-02T01:30:01.596Z,21.53
2019-05-02T01:32:32.044Z,23.53
2019-05-02T01:35:12.099Z,23.70
2019-05-02T01:37:56.723Z,23.40
2019-05-02T01:40:22.779Z,24.40
2019-05-02T01:42:50.714Z,23.97
2019-05-02T01:45:16.835Z,23.20
2019-05-02T01:47:42.987Z,24.27
2019-05-02T01:50:09.242Z,23.27
2019-05-02T01:52:35.296Z,23.73
2019-05-02T01:55:01.548Z,21.97
2019-05-02T01:57:27.613Z,23.40
2019-05-02T01:59:53.831Z,22.60
2019-05-02T02:02:19.890Z,22.97
2019-05-02T02:04:46.034Z,25.97
2019-05-02T02:07:15.025Z,27.50
2019-05-02T02:09:44.054Z,24.30
2019-05-02T02:12:09.913Z,23.20
2019-05-02T02:14:36.069Z,23.63
2019-05-02T02:17:02.330Z,25.57
2019-05-02T02:19:30.346Z,21.93
2019-05-02T02:22:10.171Z,21.40
2019-05-02T02:24:40.671Z,20.97
2019-05-02T02:27:06.768Z,22.33
2019-05-02T02:29:32.819Z,21.50
2019-05-02T02:31:58.875Z,22.77
2019-05-02T02:34:29.253Z,26.10
2019-05-02T02:36:52.896Z,25.13
2019-05-02T02:39:18.985Z,24.63
2019-05-02T02:41:51.549Z,23.47
2019-05-02T02:44:15.092Z,24.60
2019-05-02T02:46:43.049Z,22.87
2019-05-02T02:49:14.024Z,25.07
2019-05-02T02:51:37.071Z,22.40
2019-05-02T02:54:05.471Z,24.53
2019-05-02T02:56:34.451Z,21.93
2019-05-02T02:58:59.152Z,23.63
2019-05-02T03:01:28.677Z,22.13
2019-05-02T03:03:53.239Z,25.60
2019-05-02T03:06:19.313Z,22.90
2019-05-02T03:08:48.755Z,21.47
2019-05-02T03:11:22.428Z,24.20
2019-05-02T03:14:06.665Z,29.90
2019-05-02T03:16:32.707Z,24.33
2019-05-02T03:18:58.767Z,22.37
2019-05-02T03:21:24.919Z,25.27
2019-05-02T03:24:01.336Z,24.50
2019-05-02T03:26:19.040Z,22.60
2019-05-02T03:28:57.666Z,24.27
2019-05-02T03:31:24.101Z,22.57
2019-05-02T04:09:06.459Z,26.77
2019-05-02T04:11:38.473Z,25.17
2019-05-02T04:14:01.013Z,25.43
2019-05-02T04:16:29.372Z,23.83
2019-05-02T04:18:58.227Z,22.07
2019-05-02T04:21:26.277Z,23.10
2019-05-02T04:23:52.263Z,24.40
2019-05-02T04:26:18.826Z,24.40
2019-05-02T04:28:45.482Z,23.53
2019-05-02T04:31:12.940Z,21.73
2019-05-02T04:33:38.994Z,28.07
2019-05-02T04:36:13.447Z,25.27
2019-05-02T04:38:46.605Z,21.07
2019-05-02T04:41:01.339Z,25.47
2019-05-02T04:43:28.750Z,26.97
2019-05-02T04:45:57.456Z,27.50
2019-05-02T04:48:22.842Z,26.70
2019-05-02T04:50:51.619Z,21.37
2019-05-02T04:53:18.946Z,21.90
2019-05-02T04:55:52.042Z,22.20
2019-05-02T04:58:23.979Z,20.20
2019-05-02T05:00:45.049Z,20.83
2019-05-02T05:03:15.615Z,20.33
2019-05-02T05:05:37.771Z,24.53
2019-05-02T05:08:04.873Z,24.47
2019-05-02T05:10:40.212Z,23.27
2019-05-02T05:12:58.907Z,23.17
2019-05-02T05:15:37.290Z,24.03
2019-05-02T05:17:53.047Z,28.60
2019-05-02T05:20:19.097Z,20.13
2019-05-02T05:22:45.958Z,20.00
2019-05-02T05:25:30.160Z,20.77
2019-05-02T05:27:58.742Z,22.53
2019-05-02T05:30:24.189Z,19.17
2019-05-02T05:32:50.336Z,22.30
2019-05-02T05:35:17.699Z,23.83
2019-05-02T05:37:51.500Z,24.33
2019-05-02T05:40:12.039Z,25.03
2019-05-02T05:42:38.099Z,21.90
2019-05-02T05:45:09.770Z,23.73
2019-05-02T05:47:33.323Z,22.53
2019-05-02T05:50:01.235Z,7.83
2019-05-02T05:52:27.891Z,6.97
2019-05-02T05:59:48.395Z,2.98
2019-05-02T06:02:14.827Z,3.60
2019-05-02T06:04:41.411Z,6.53
2019-05-02T06:07:07.860Z,2.80
2019-05-02T06:14:26.427Z,5.07
2019-05-02T06:31:38.114Z,2.77
2019-05-02T06:34:07.106Z,1.20
2019-05-02T06:36:36.939Z,3.30
2019-05-02T06:41:28.279Z,5.47
2019-05-02T06:43:54.812Z,3.50
2019-05-02T06:46:27.077Z,5.75
2019-05-02T06:51:20.774Z,3.27
2019-05-02T06:56:14.135Z,6.45
2019-05-02T06:58:41.912Z,2.33
2019-05-02T07:01:08.768Z,1.80
2019-05-02T07:03:34.821Z,3.93
2019-05-02T07:06:02.686Z,3.20
2019-05-02T07:08:29.278Z,3.37
2019-05-02T07:11:00.656Z,7.08
2019-05-02T07:13:24.103Z,3.77
2019-05-02T07:15:55.251Z,4.37
2019-05-02T07:18:26.491Z,3.20
2019-05-02T07:20:52.915Z,3.17
2019-05-02T07:23:18.990Z,1.67
2019-05-02T07:25:45.825Z,6.92
2019-05-02T07:28:11.882Z,3.83
2019-05-02T07:30:37.961Z,2.73
2019-05-02T07:33:04.024Z,3.97
2019-05-02T07:35:31.426Z,3.20
2019-05-02T07:37:57.504Z,6.80
2019-05-02T07:40:23.932Z,3.60
2019-05-02T07:42:50.362Z,3.33
2019-05-02T07:45:16.624Z,7.25
2019-05-02T07:47:43.042Z,3.42
2019-05-02T07:50:10.374Z,3.13
2019-05-02T07:52:36.814Z,2.30
2019-05-02T07:55:06.639Z,1.83
2019-05-02T07:57:32.376Z,2.65
2019-05-02T08:00:00.651Z,1.03
2019-05-02T08:02:26.979Z,2.33
2019-05-02T08:04:53.027Z,3.40
2019-05-02T08:07:21.185Z,3.03
2019-05-02T08:09:47.260Z,3.80
2019-05-02T08:12:13.790Z,4.30
2019-05-02T08:14:39.869Z,2.57
2019-05-02T08:17:10.526Z,4.83
2019-05-02T08:19:37.599Z,2.23
2019-05-02T08:22:04.653Z,3.43
2019-05-02T08:24:33.183Z,1.40
2019-05-02T08:27:05.734Z,1.93
2019-05-02T08:29:32.196Z,1.50
2019-05-02T08:31:58.256Z,1.43
2019-05-02T08:34:31.719Z,6.03
2019-05-02T08:36:58.854Z,2.80
2019-05-02T08:39:33.039Z,4.33
2019-05-02T08:41:56.373Z,3.60
2019-05-02T08:44:23.379Z,2.80
2019-05-02T08:46:51.525Z,4.50
2019-05-02T08:49:18.916Z,4.23
2019-05-02T08:51:45.740Z,2.50
2019-05-02T08:54:11.796Z,1.03
2019-05-02T08:56:37.856Z,3.33
2019-05-02T08:59:04.579Z,2.17
2019-05-02T09:01:35.264Z,0.97
2019-05-02T09:03:58.987Z,5.30
2019-05-02T09:06:25.036Z,2.93
2019-05-02T09:08:51.349Z,5.80
2019-05-02T09:11:19.231Z,3.77
2019-05-02T09:13:46.087Z,8.70
2019-05-02T09:16:12.753Z,5.50
2019-05-02T09:18:46.555Z,4.07
2019-05-02T09:21:06.809Z,2.70
2019-05-02T09:23:36.870Z,4.53
2019-05-02T09:26:02.554Z,2.30
2019-05-02T09:28:28.819Z,2.13
2019-05-02T09:30:57.366Z,2.83
2019-05-02T09:33:23.195Z,2.77
2019-05-02T09:35:51.544Z,3.70
2019-05-02T09:38:17.588Z,3.53
2019-05-02T09:40:47.316Z,3.80
2019-05-02T09:43:12.318Z,4.87
2019-05-02T09:45:41.032Z,4.67
2019-05-02T09:48:08.091Z,5.13
2019-05-02T09:50:37.908Z,0.97
2019-05-02T09:53:02.656Z,2.27
2019-05-02T09:55:28.708Z,1.43
2019-05-02T09:57:55.131Z,7.53
2019-05-02T10:00:36.452Z,1.33
2019-05-02T10:03:03.405Z,4.40
2019-05-02T10:05:29.571Z,3.93
2019-05-02T10:07:57.534Z,7.17
2019-05-02T10:10:24.071Z,4.20
2019-05-02T10:12:52.033Z,4.87
2019-05-02T10:15:18.450Z,4.65
2019-05-02T10:17:46.881Z,4.27
2019-05-02T10:20:13.819Z,2.80
2019-05-02T10:22:41.396Z,3.83
2019-05-02T10:25:08.383Z,3.80
2019-05-02T10:27:38.460Z,3.87
2019-05-02T10:30:11.803Z,3.77
2019-05-02T10:32:32.779Z,2.77
2019-05-02T10:34:58.947Z,3.08
2019-05-02T10:37:24.999Z,3.80
2019-05-02T10:39:52.535Z,3.10
2019-05-02T10:42:19.391Z,3.00
2019-05-02T10:44:45.459Z,5.15
2019-05-02T10:47:12.836Z,4.03
2019-05-02T10:49:47.036Z,1.13
2019-05-02T10:52:13.100Z,2.90
2019-05-02T10:54:39.289Z,1.73
2019-05-02T10:57:05.727Z,1.70
2019-05-02T10:59:32.741Z,1.67
2019-05-02T11:02:17.742Z,2.40
2019-05-02T11:04:49.203Z,6.03
2019-05-02T11:07:17.051Z,2.93
2019-05-02T11:09:43.593Z,4.20
2019-05-02T11:12:16.298Z,5.43
2019-05-02T11:14:42.290Z,2.80
2019-05-02T11:17:14.020Z,4.57
2019-05-02T11:19:41.990Z,1.47
2019-05-02T11:22:08.236Z,1.17
2019-05-02T11:24:34.295Z,1.70
2019-05-02T11:27:02.093Z,3.20
2019-05-02T11:29:28.683Z,2.20
2019-05-02T11:31:55.103Z,5.87
2019-05-02T11:34:22.128Z,4.40
2019-05-02T11:36:48.815Z,5.10
2019-05-02T11:39:24.447Z,5.70
2019-05-02T11:41:43.571Z,3.60
2019-05-02T11:44:11.660Z,4.80
2019-05-02T11:46:43.027Z,4.13
2019-05-02T11:49:05.925Z,3.83
2019-05-02T11:51:32.606Z,2.27
2019-05-02T11:54:04.128Z,5.72
2019-05-02T11:56:27.283Z,2.33
2019-05-02T11:58:53.341Z,3.37
2019-05-02T12:01:31.109Z,5.97
2019-05-02T12:03:52.435Z,8.77
2019-05-02T12:06:19.844Z,3.60
2019-05-02T12:08:49.365Z,4.53
2019-05-02T12:11:17.740Z,6.63
2019-05-02T12:13:47.259Z,5.97
2019-05-02T12:16:12.617Z,3.70
2019-05-02T12:18:39.217Z,2.70
2019-05-02T12:21:05.318Z,3.40
2019-05-02T12:23:32.523Z,8.23
2019-05-02T12:25:59.132Z,0.68
2019-05-02T12:28:25.215Z,1.67
2019-05-02T12:30:52.030Z,2.43
2019-05-02T12:33:19.912Z,3.95
2019-05-02T12:35:46.443Z,6.80
2019-05-02T12:38:12.882Z,8.67
2019-05-02T12:40:39.414Z,5.63
2019-05-02T12:43:05.847Z,5.17
2019-05-02T12:45:33.705Z,3.83
2019-05-02T12:48:02.342Z,10.63
2019-05-02T12:50:28.453Z,4.47
2019-05-02T12:52:55.753Z,4.25
2019-05-02T12:55:22.191Z,3.20
2019-05-02T12:57:48.391Z,3.47
2019-05-02T13:00:15.074Z,2.17
2019-05-02T13:02:46.584Z,2.60
2019-05-02T13:05:13.228Z,4.15
2019-05-02T13:07:42.824Z,5.17
2019-05-02T13:10:11.817Z,12.20
2019-05-02T13:12:41.853Z,4.07
2019-05-02T13:15:08.571Z,4.05
2019-05-02T13:17:42.812Z,10.13
2019-05-02T13:20:04.653Z,3.00
2019-05-02T13:22:38.679Z,4.37
2019-05-02T13:25:10.186Z,1.83
2019-05-02T13:27:43.530Z,2.42
2019-05-02T13:30:05.464Z,3.17
2019-05-02T13:32:33.799Z,3.20
2019-05-02T13:35:12.849Z,6.40
2019-05-02T13:37:39.221Z,4.77
2019-05-02T13:40:07.847Z,5.20
2019-05-02T13:42:34.283Z,3.20
2019-05-02T13:45:14.816Z,15.40
2019-05-02T13:47:42.634Z,4.72
2019-05-02T13:50:09.468Z,4.40
2019-05-02T13:52:35.526Z,2.27
2019-05-02T13:55:03.664Z,3.83
2019-05-02T13:57:35.034Z,4.93
2019-05-02T13:59:58.178Z,1.40
2019-05-02T14:02:31.774Z,2.23
2019-05-02T14:04:58.437Z,3.70
2019-05-02T14:07:24.899Z,4.50
2019-05-02T14:09:58.330Z,4.87
2019-05-02T14:12:23.475Z,5.10
2019-05-02T14:14:51.799Z,6.33
2019-05-02T14:17:18.243Z,4.17
2019-05-02T14:19:44.320Z,2.10
2019-05-02T14:22:12.764Z,0.53
2019-05-02T14:24:39.351Z,2.30
2019-05-02T14:27:07.170Z,2.23
2019-05-02T14:29:34.056Z,1.73
2019-05-02T14:32:02.521Z,3.30
2019-05-02T14:34:32.713Z,3.90
2019-05-02T14:36:59.553Z,4.03
2019-05-02T14:39:26.679Z,4.00
2019-05-02T14:41:53.266Z,4.55
2019-05-02T14:44:23.328Z,3.60
2019-05-02T14:46:48.031Z,5.10
2019-05-02T14:49:16.666Z,1.73
2019-05-02T14:51:42.431Z,2.13
2019-05-02T14:54:08.604Z,1.63
2019-05-02T14:56:37.663Z,1.93
2019-05-02T14:59:09.248Z,2.83
2019-05-02T15:01:33.333Z,1.77
2019-05-02T15:04:06.467Z,1.92
2019-05-02T15:06:27.374Z,3.13
2019-05-02T15:08:54.087Z,3.57
2019-05-02T15:11:30.399Z,6.67
2019-05-02T15:13:48.588Z,9.60
2019-05-02T15:16:17.618Z,5.43
2019-05-02T15:18:42.740Z,3.93
2019-05-02T15:21:16.137Z,2.13
2019-05-02T15:23:39.159Z,5.87
2019-05-02T15:26:05.318Z,2.53
2019-05-02T15:28:37.442Z,2.73
2019-05-02T15:31:11.799Z,2.50
2019-05-02T15:33:42.053Z,7.40
2019-05-02T15:36:11.845Z,3.67
2019-05-02T15:38:45.552Z,4.70
2019-05-02T15:41:09.030Z,7.27
2019-05-02T15:43:39.129Z,6.57
2019-05-02T15:46:03.351Z,5.53
2019-05-02T15:48:29.452Z,3.30
2019-05-02T15:51:00.043Z,2.77
2019-05-02T15:53:32.483Z,2.57
2019-05-02T15:55:59.311Z,1.80
2019-05-02T15:58:27.786Z,2.83
2019-05-02T16:01:04.552Z,1.77
2019-05-02T16:03:43.120Z,4.70
2019-05-02T16:06:09.190Z,4.95
2019-05-02T16:08:37.251Z,1.73
2019-05-02T16:11:04.172Z,3.40
2019-05-02T16:13:31.821Z,5.27
2019-05-02T16:16:02.195Z,3.43
2019-05-02T16:18:25.959Z,6.30
2019-05-02T16:21:06.959Z,2.97
2019-05-02T16:23:32.733Z,5.05
2019-05-02T16:25:56.921Z,4.40
2019-05-02T16:28:22.131Z,2.07
2019-05-02T16:30:52.453Z,2.23
2019-05-02T16:33:20.739Z,5.53
2019-05-02T16:35:52.826Z,5.43
2019-05-02T16:38:15.526Z,6.70
2019-05-02T16:40:42.077Z,4.80
2019-05-02T16:43:08.144Z,8.10
2019-05-02T16:45:34.240Z,2.90
2019-05-02T16:48:03.235Z,8.57
2019-05-02T16:50:35.180Z,3.77
2019-05-02T16:52:57.335Z,2.97
2019-05-02T16:55:26.513Z,3.83
2019-05-02T16:57:51.971Z,5.62
2019-05-02T17:00:23.117Z,3.70
2019-05-02T17:02:49.560Z,4.03
2019-05-02T17:05:16.191Z,4.93
2019-05-02T17:08:03.096Z,3.90
2019-05-02T17:10:34.980Z,5.10
2019-05-02T17:13:02.710Z,2.73
2019-05-02T17:15:34.968Z,4.47
2019-05-02T17:18:04.317Z,6.93
2019-05-02T17:20:28.131Z,2.50
2019-05-02T17:23:02.167Z,9.80
2019-05-02T17:25:22.920Z,4.60
2019-05-02T17:27:53.483Z,4.40
2019-05-02T17:30:17.975Z,3.33
2019-05-02T17:32:44.409Z,2.30
2019-05-02T17:35:14.021Z,8.37
2019-05-02T17:37:40.597Z,5.47
2019-05-02T17:40:07.972Z,5.03
2019-05-02T17:42:34.440Z,5.47
2019-05-02T17:45:03.693Z,4.73
2019-05-02T17:47:31.063Z,4.40
2019-05-02T17:49:58.331Z,2.43
2019-05-02T17:52:35.540Z,2.03
2019-05-02T17:55:03.465Z,2.23
2019-05-02T17:57:33.352Z,1.75
2019-05-02T17:59:57.489Z,1.70
2019-05-02T18:02:23.571Z,3.00
2019-05-02T18:04:54.157Z,7.97
2019-05-02T18:07:18.233Z,4.17
2019-05-02T18:09:44.821Z,3.23
2019-05-02T18:12:12.594Z,3.57
2019-05-02T18:14:41.949Z,7.10
2019-05-02T18:17:07.753Z,3.80
2019-05-02T18:19:33.820Z,2.55
2019-05-02T18:22:03.631Z,1.70
2019-05-02T18:24:27.948Z,2.30
2019-05-02T18:26:54.374Z,2.75
2019-05-02T18:29:20.892Z,5.50
2019-05-02T18:31:47.728Z,2.83
2019-05-02T18:34:20.364Z,4.37
2019-05-02T18:36:41.955Z,10.48
2019-05-02T18:39:08.411Z,11.63
2019-05-02T18:41:37.261Z,3.63
2019-05-02T18:44:03.256Z,5.90
2019-05-02T18:46:29.425Z,3.80
2019-05-02T18:48:55.853Z,2.03
2019-05-02T18:51:21.919Z,2.80
2019-05-02T18:53:48.343Z,7.13
2019-05-02T18:56:14.771Z,1.97
2019-05-02T18:58:45.245Z,2.87
2019-05-02T19:01:14.047Z,7.27
2019-05-02T19:03:37.569Z,8.70
2019-05-02T19:06:03.613Z,4.23
2019-05-02T19:08:45.371Z,4.20
2019-05-02T19:11:08.973Z,4.27
2019-05-02T19:13:32.542Z,5.60
2019-05-02T19:15:58.075Z,3.33
2019-05-02T19:18:24.503Z,4.67
2019-05-02T19:20:57.366Z,4.50
2019-05-02T19:23:22.650Z,2.10
2019-05-02T19:25:48.850Z,2.20
2019-05-02T19:28:19.579Z,4.93
2019-05-02T19:30:45.743Z,2.17
2019-05-02T19:33:12.193Z,5.25
2019-05-02T19:35:45.240Z,4.80
2019-05-02T19:38:07.072Z,6.03
2019-05-02T19:40:33.508Z,3.77
2019-05-02T19:43:06.083Z,5.87
2019-05-02T19:45:27.951Z,3.70
2019-05-02T19:47:57.671Z,6.00
2019-05-02T19:50:33.099Z,4.00
2019-05-02T19:53:02.027Z,2.83
2019-05-02T19:55:27.469Z,1.83
2019-05-02T19:57:56.668Z,3.40
2019-05-02T20:00:22.292Z,1.93
2019-05-02T20:02:48.541Z,1.50
2019-05-02T20:05:16.420Z,5.17
2019-05-02T20:07:43.319Z,6.05
2019-05-02T20:10:09.704Z,3.70
2019-05-02T20:12:40.952Z,3.70
2019-05-02T20:15:05.010Z,5.15
2019-05-02T20:17:32.532Z,3.30
2019-05-02T20:20:05.425Z,2.87
2019-05-02T20:22:28.963Z,3.53
2019-05-02T20:25:00.095Z,2.15
2019-05-02T20:27:23.999Z,2.30
2019-05-02T20:29:52.004Z,8.50
2019-05-02T20:32:18.026Z,2.80
2019-05-02T20:34:44.547Z,3.13
2019-05-02T20:37:12.735Z,9.23
2019-05-02T20:39:38.973Z,4.77
2019-05-02T20:42:05.459Z,4.17
2019-05-02T20:44:32.167Z,4.73
2019-05-02T20:46:58.811Z,7.90
2019-05-02T20:49:25.348Z,1.40
2019-05-02T20:51:51.928Z,2.83
2019-05-02T20:54:18.155Z,2.83
2019-05-02T20:56:44.583Z,3.70
2019-05-02T20:59:12.645Z,5.10
2019-05-02T21:01:38.624Z,1.63
2019-05-02T21:04:05.100Z,7.00
2019-05-02T21:06:40.802Z,4.43
2019-05-02T21:09:09.492Z,3.13
2019-05-02T21:11:36.204Z,2.30
2019-05-02T21:14:02.726Z,3.83
2019-05-02T21:16:29.159Z,3.27
2019-05-02T21:18:55.595Z,1.43
2019-05-02T21:21:22.934Z,4.53
2019-05-02T21:23:49.415Z,2.20
2019-05-02T21:26:15.460Z,4.70
2019-05-02T21:28:42.810Z,2.53
2019-05-02T21:31:09.083Z,2.63
2019-05-02T21:33:37.267Z,12.07
2019-05-02T21:36:04.219Z,4.63
2019-05-02T21:38:31.958Z,5.50
2019-05-02T21:40:58.692Z,3.77
2019-05-02T21:43:25.156Z,4.43
2019-05-02T21:45:51.712Z,6.77
2019-05-02T21:48:18.331Z,3.93
2019-05-02T21:50:46.284Z,1.73
2019-05-02T21:53:16.813Z,3.17
2019-05-02T21:55:45.196Z,4.10
2019-05-02T21:58:12.111Z,3.70
2019-05-02T22:00:58.036Z,4.30
2019-05-02T22:03:24.099Z,2.87
2019-05-02T22:05:50.519Z,4.70
2019-05-02T22:08:17.076Z,4.37
2019-05-02T22:10:43.500Z,3.10
2019-05-02T22:13:09.932Z,3.30
2019-05-02T22:15:36.364Z,3.77
2019-05-02T22:18:03.139Z,6.63
2019-05-02T22:20:29.191Z,2.60
2019-05-02T22:22:55.655Z,1.47
2019-05-02T22:25:22.159Z,1.73
2019-05-02T22:27:48.363Z,2.50
2019-05-02T22:30:14.803Z,5.83
2019-05-02T22:32:42.623Z,1.77
2019-05-02T22:35:09.207Z,4.47
2019-05-02T22:37:36.744Z,4.20
2019-05-02T22:40:06.612Z,2.45
2019-05-02T22:42:33.048Z,4.83
2019-05-02T22:45:01.698Z,2.52
2019-05-02T22:47:27.814Z,6.35
2019-05-02T22:49:53.867Z,3.17
2019-05-02T22:52:21.800Z,3.10
2019-05-02T22:54:48.163Z,1.73
2019-05-02T22:57:14.470Z,3.10
2019-05-02T22:59:42.253Z,1.47
2019-05-02T23:02:08.567Z,2.43
2019-05-02T23:04:35.025Z,5.47
2019-05-02T23:07:02.296Z,3.97
2019-05-02T23:09:28.652Z,3.10
2019-05-02T23:11:54.748Z,4.80
2019-05-02T23:14:22.212Z,3.03
2019-05-02T23:16:48.544Z,3.03
2019-05-02T23:19:15.583Z,1.87
2019-05-02T23:21:42.472Z,3.93
2019-05-02T23:24:11.717Z,2.20
2019-05-02T23:26:57.290Z,1.17
2019-05-02T23:29:23.392Z,0.93
2019-05-02T23:31:49.535Z,0.97
2019-05-02T23:34:16.004Z,4.10
2019-05-02T23:36:42.048Z,3.47
2019-05-02T23:39:08.988Z,10.32
2019-05-02T23:41:35.164Z,3.47
2019-05-02T23:44:02.805Z,3.40
2019-05-02T23:46:29.520Z,3.27
2019-05-02T23:48:55.609Z,3.13
2019-05-02T23:51:22.633Z,3.20
2019-05-02T23:53:48.788Z,4.23
2019-05-02T23:56:15.476Z,4.67
2019-05-02T23:58:42.608Z,0.77
